Time;durP1;ratioP1;P1;durP2;ratioP2;P2;SDS_P1;SDS_P2;PMS_P1;PMS_P2;Temp;Humidity;BMP_temperature;BMP_pressure;BME280_temperature;BME280_humidity;BME280_pressure;Samples;Min_cycle;Max_cycle;Signal;HPM_P1;HPM_P2
2023/07/02 00:00:38;;;;;;;6.33;5.93;;;20.20;99.90;;;;;;5032220;28;20623;-64
2023/07/02 00:03:04;;;;;;;5.67;5.27;;;20.20;99.90;;;;;;5033631;28;20201;-65
2023/07/02 00:05:30;;;;;;;6.13;5.67;;;20.20;99.90;;;;;;5031756;28;20487;-64
2023/07/02 00:07:56;;;;;;;5.73;5.37;;;20.20;99.90;;;;;;5032838;28;20405;-64
2023/07/02 00:10:21;;;;;;;5.77;5.27;;;20.20;99.90;;;;;;5031970;28;20793;-64
2023/07/02 00:12:47;;;;;;;5.50;5.10;;;20.20;99.90;;;;;;5040211;28;20176;-64
2023/07/02 00:15:13;;;;;;;5.80;5.50;;;20.20;99.90;;;;;;5052717;28;20514;-62
2023/07/02 00:17:39;;;;;;;6.00;5.60;;;20.20;99.90;;;;;;5045013;28;20244;-64
2023/07/02 00:20:14;;;;;;;6.00;5.60;;;20.10;99.90;;;;;;5032566;28;20240;-64
2023/07/02 00:22:45;;;;;;;5.60;5.20;;;20.10;99.90;;;;;;5031963;28;20474;-64
2023/07/02 00:25:13;;;;;;;5.30;5.00;;;20.10;99.90;;;;;;5016674;28;20770;-64
2023/07/02 00:27:40;;;;;;;5.60;5.20;;;20.10;99.90;;;;;;5051530;28;20412;-64
2023/07/02 00:30:06;;;;;;;6.70;6.10;;;20.10;99.90;;;;;;5052361;28;20527;-64
2023/07/02 00:32:32;;;;;;;5.67;5.17;;;20.10;99.90;;;;;;5049628;28;20424;-64
2023/07/02 00:34:58;;;;;;;6.77;6.27;;;20.10;99.90;;;;;;5052347;28;20400;-65
2023/07/02 00:37:24;;;;;;;6.40;5.97;;;20.10;99.90;;;;;;5044975;28;20166;-64
2023/07/02 00:39:50;;;;;;;5.80;5.40;;;20.10;99.90;;;;;;5032096;28;20448;-65
2023/07/02 00:42:16;;;;;;;6.30;5.90;;;20.10;99.90;;;;;;5032558;28;20213;-62
2023/07/02 00:44:43;;;;;;;6.10;5.50;;;20.10;99.90;;;;;;5033244;28;20606;-64
2023/07/02 00:47:09;;;;;;;6.43;5.97;;;20.10;99.90;;;;;;5032311;28;20440;-64
2023/07/02 00:49:35;;;;;;;6.30;5.80;;;20.10;99.90;;;;;;5031556;28;20420;-64
2023/07/02 00:52:01;;;;;;;6.20;5.80;;;20.10;99.90;;;;;;5031609;28;20472;-65
2023/07/02 00:54:31;;;;;;;6.00;5.40;;;20.10;99.90;;;;;;5031067;28;20412;-64
2023/07/02 00:57:02;;;;;;;6.53;5.60;;;20.00;99.90;;;;;;5036773;28;20197;-64
2023/07/02 00:59:29;;;;;;;6.10;5.70;;;20.00;99.90;;;;;;5051385;28;20402;-63
2023/07/02 01:01:56;;;;;;;6.07;5.57;;;20.00;99.90;;;;;;5051960;28;20478;-64
2023/07/02 01:04:27;;;;;;;5.73;5.33;;;20.00;99.90;;;;;;5051308;28;20400;-64
2023/07/02 01:07:00;;;;;;;5.97;5.33;;;20.00;99.90;;;;;;5052015;28;20396;-64
2023/07/02 01:09:26;;;;;;;6.47;5.93;;;20.00;99.90;;;;;;5043776;28;20425;-64
2023/07/02 01:12:11;;;;;;;6.27;5.50;;;20.00;99.90;;;;;;5031998;28;20448;-64
2023/07/02 01:14:39;;;;;;;7.90;6.50;;;20.00;99.90;;;;;;5031543;28;20393;-64
2023/07/02 01:17:06;;;;;;;6.37;5.77;;;19.90;99.90;;;;;;5036148;28;20762;-65
2023/07/02 01:19:53;;;;;;;6.40;5.80;;;19.90;99.90;;;;;;5034975;28;20401;-64
2023/07/02 01:22:28;;;;;;;6.60;5.97;;;20.00;99.90;;;;;;5034938;28;20432;-62
2023/07/02 01:24:55;;;;;;;6.60;6.10;;;19.90;99.90;;;;;;5036102;28;20400;-65
2023/07/02 01:27:21;;;;;;;6.80;6.17;;;19.90;99.90;;;;;;5036430;28;20423;-61
2023/07/02 01:29:51;;;;;;;11.10;7.00;;;19.90;99.90;;;;;;5035832;28;20480;-65
2023/07/02 01:32:16;;;;;;;6.80;6.30;;;19.90;99.90;;;;;;5037092;28;20528;-65
2023/07/02 01:34:48;;;;;;;7.10;6.43;;;19.90;99.90;;;;;;5035385;28;20424;-64
2023/07/02 01:37:16;;;;;;;7.20;6.50;;;20.00;99.90;;;;;;5047224;28;20190;-65
2023/07/02 01:39:42;;;;;;;7.00;6.50;;;20.00;99.90;;;;;;5044215;28;20467;-65
2023/07/02 01:42:14;;;;;;;7.50;6.80;;;20.00;99.90;;;;;;5035452;28;20425;-65
2023/07/02 01:44:40;;;;;;;7.33;6.70;;;19.90;99.90;;;;;;5035904;28;20403;-64
2023/07/02 01:47:06;;;;;;;7.87;7.17;;;19.80;99.90;;;;;;5037701;28;20487;-65
2023/07/02 01:49:34;;;;;;;7.90;7.30;;;19.80;99.90;;;;;;5054549;28;20505;-64
2023/07/02 01:52:00;;;;;;;9.17;6.80;;;19.70;99.90;;;;;;5040125;28;20460;-64
2023/07/02 01:54:27;;;;;;;7.17;6.57;;;19.60;99.90;;;;;;5034615;28;20402;-64
2023/07/02 01:56:54;;;;;;;10.57;7.63;;;19.60;99.90;;;;;;5035363;28;20228;-64
2023/07/02 01:59:19;;;;;;;7.50;6.80;;;19.50;99.90;;;;;;5042415;28;20962;-61
2023/07/02 02:01:45;;;;;;;9.47;7.70;;;19.40;99.90;;;;;;5054688;28;20428;-64
2023/07/02 02:04:12;;;;;;;7.70;7.00;;;19.40;99.90;;;;;;5040713;28;20610;-65
2023/07/02 02:06:38;;;;;;;7.07;6.47;;;19.40;99.90;;;;;;5046527;28;20232;-64
2023/07/02 02:09:05;;;;;;;10.27;6.97;;;19.40;99.90;;;;;;5054762;28;20473;-64
2023/07/02 02:11:34;;;;;;;7.90;7.03;;;19.40;99.90;;;;;;5053909;28;20443;-64
2023/07/02 02:14:01;;;;;;;10.90;7.27;;;19.40;99.90;;;;;;5054921;28;20404;-64
2023/07/02 02:16:27;;;;;;;7.53;6.90;;;19.40;99.90;;;;;;5053898;28;20415;-63
2023/07/02 02:18:53;;;;;;;7.60;6.47;;;19.30;99.90;;;;;;5036010;28;20441;-63
2023/07/02 02:21:20;;;;;;;7.33;6.67;;;19.40;99.90;;;;;;5042274;28;20475;-65
2023/07/02 02:23:46;;;;;;;7.13;6.33;;;19.40;99.90;;;;;;5040547;28;20444;-64
2023/07/02 02:26:12;;;;;;;7.60;6.90;;;19.40;99.90;;;;;;5053855;28;20920;-65
2023/07/02 02:28:38;;;;;;;7.23;6.63;;;19.40;99.90;;;;;;5053547;28;20463;-64
2023/07/02 02:31:03;;;;;;;8.67;6.93;;;19.30;99.90;;;;;;5054570;28;20206;-65
2023/07/02 02:33:30;;;;;;;7.40;6.30;;;19.30;99.90;;;;;;5051651;28;20235;-64
2023/07/02 02:35:55;;;;;;;7.93;6.50;;;19.20;99.90;;;;;;5054597;28;20177;-65
2023/07/02 02:38:21;;;;;;;7.90;7.20;;;19.20;99.90;;;;;;5054507;28;20428;-65
2023/07/02 02:40:47;;;;;;;7.37;6.67;;;19.10;99.90;;;;;;5053573;28;20272;-64
2023/07/02 02:43:13;;;;;;;7.63;6.90;;;19.10;99.90;;;;;;5054542;28;20166;-64
2023/07/02 02:45:39;;;;;;;8.10;6.93;;;19.20;99.90;;;;;;5044136;28;20637;-64
2023/07/02 02:48:05;;;;;;;9.03;8.00;;;19.20;99.90;;;;;;5034195;28;20170;-64
2023/07/02 02:50:30;;;;;;;7.80;7.00;;;19.20;99.90;;;;;;5032927;28;20460;-64
2023/07/02 02:52:56;;;;;;;7.50;6.80;;;19.20;99.90;;;;;;5034332;28;20726;-64
2023/07/02 02:55:22;;;;;;;10.37;8.13;;;19.20;99.90;;;;;;5053008;28;20223;-65
2023/07/02 02:57:48;;;;;;;7.50;6.80;;;19.30;99.90;;;;;;5053482;28;20177;-64
2023/07/02 03:00:13;;;;;;;8.60;7.00;;;19.20;99.90;;;;;;5053436;28;20204;-65
2023/07/02 03:02:39;;;;;;;8.83;7.60;;;19.20;99.90;;;;;;5053252;28;20249;-64
2023/07/02 03:05:06;;;;;;;10.40;7.87;;;19.10;99.90;;;;;;5054030;28;20833;-65
2023/07/02 03:07:32;;;;;;;9.03;7.20;;;19.10;99.90;;;;;;5051738;28;20265;-64
2023/07/02 03:09:58;;;;;;;10.93;8.50;;;19.10;99.90;;;;;;5053740;28;20511;-65
2023/07/02 03:12:26;;;;;;;9.97;8.10;;;19.10;99.90;;;;;;5048542;28;20413;-62
2023/07/02 03:14:54;;;;;;;14.57;8.50;;;19.00;99.90;;;;;;5033650;28;20405;-64
2023/07/02 03:17:22;;;;;;;12.47;8.10;;;19.00;99.90;;;;;;5033848;28;20403;-64
2023/07/02 03:19:48;;;;;;;10.73;7.80;;;19.00;99.90;;;;;;5040093;28;20422;-64
2023/07/02 03:22:14;;;;;;;12.57;8.70;;;19.10;99.90;;;;;;5034683;28;20424;-64
2023/07/02 03:24:40;;;;;;;12.63;9.00;;;19.00;99.90;;;;;;5032580;28;20421;-64
2023/07/02 03:27:06;;;;;;;12.07;9.53;;;19.00;99.90;;;;;;5033718;28;20232;-64
2023/07/02 03:29:34;;;;;;;15.27;9.40;;;19.00;99.90;;;;;;5015131;28;20170;-64
2023/07/02 03:31:59;;;;;;;16.23;9.27;;;19.00;99.90;;;;;;5035287;28;20456;-64
2023/07/02 03:34:26;;;;;;;10.13;9.10;;;19.10;99.90;;;;;;5053282;28;20403;-62
2023/07/02 03:36:51;;;;;;;13.57;10.43;;;19.10;99.90;;;;;;5053058;28;20205;-64
2023/07/02 03:39:17;;;;;;;15.67;10.80;;;19.10;99.90;;;;;;5053231;28;20944;-64
2023/07/02 03:41:46;;;;;;;13.03;10.83;;;19.10;99.90;;;;;;5052462;28;20267;-64
2023/07/02 03:44:12;;;;;;;13.30;10.63;;;19.10;99.90;;;;;;5053207;28;20185;-65
2023/07/02 03:46:37;;;;;;;14.53;11.10;;;19.00;99.90;;;;;;5049499;28;20451;-64
2023/07/02 03:49:03;;;;;;;13.07;10.87;;;19.00;99.90;;;;;;5052854;28;20181;-64
2023/07/02 03:51:30;;;;;;;14.33;10.83;;;19.10;99.90;;;;;;5043937;28;20228;-62
2023/07/02 03:53:56;;;;;;;16.13;10.17;;;19.10;99.90;;;;;;5023273;28;20486;-64
2023/07/02 03:56:21;;;;;;;14.93;11.27;;;19.10;99.90;;;;;;5032757;28;20877;-64
2023/07/02 03:58:47;;;;;;;15.90;11.90;;;19.10;99.90;;;;;;5031915;28;20178;-64
2023/07/02 04:01:13;;;;;;;22.00;15.20;;;19.10;99.90;;;;;;5032826;28;20178;-64
2023/07/02 04:03:39;;;;;;;17.30;13.33;;;19.10;99.90;;;;;;5031781;28;20249;-63
2023/07/02 04:06:07;;;;;;;17.50;12.63;;;19.20;99.90;;;;;;5032494;28;20704;-64
2023/07/02 04:08:34;;;;;;;19.17;14.17;;;19.20;99.90;;;;;;5031972;28;20502;-63
2023/07/02 04:10:59;;;;;;;16.80;12.37;;;19.20;99.90;;;;;;5032775;28;20448;-64
2023/07/02 04:13:25;;;;;;;18.30;11.77;;;19.20;99.90;;;;;;5041382;28;20423;-64
2023/07/02 04:15:51;;;;;;;16.77;13.67;;;19.20;99.90;;;;;;5051769;28;20230;-64
2023/07/02 04:18:17;;;;;;;20.57;14.10;;;19.20;99.90;;;;;;5050552;28;20423;-65
2023/07/02 04:20:42;;;;;;;16.93;13.73;;;19.20;99.90;;;;;;5031083;28;20592;-65
2023/07/02 04:23:08;;;;;;;18.40;13.23;;;19.20;99.90;;;;;;5031998;28;20610;-65
2023/07/02 04:25:34;;;;;;;20.03;13.67;;;19.20;99.90;;;;;;5031416;28;20200;-64
2023/07/02 04:28:00;;;;;;;22.43;14.17;;;19.20;99.90;;;;;;5032158;28;20261;-65
2023/07/02 04:30:25;;;;;;;15.87;12.57;;;19.30;99.90;;;;;;5032450;28;20481;-65
2023/07/02 04:32:52;;;;;;;17.93;13.80;;;19.30;99.90;;;;;;5041897;28;20177;-65
2023/07/02 04:35:20;;;;;;;16.43;14.30;;;19.30;99.90;;;;;;5037976;28;20197;-64
2023/07/02 04:37:46;;;;;;;20.23;14.87;;;19.30;99.90;;;;;;5029488;28;20466;-64
2023/07/02 04:40:12;;;;;;;18.70;15.20;;;19.40;99.90;;;;;;5031580;28;20933;-64
2023/07/02 04:42:39;;;;;;;22.57;14.87;;;19.30;99.90;;;;;;5036362;28;20640;-63
2023/07/02 04:45:06;;;;;;;17.73;14.33;;;19.30;99.90;;;;;;5052254;28;20296;-63
2023/07/02 04:47:32;;;;;;;18.60;14.50;;;19.30;99.90;;;;;;5033845;28;20424;-62
2023/07/02 04:49:58;;;;;;;18.33;14.90;;;19.30;99.90;;;;;;5030766;28;20428;-64
2023/07/02 04:52:24;;;;;;;20.10;15.57;;;19.30;99.90;;;;;;5031857;28;20919;-64
2023/07/02 04:54:50;;;;;;;25.33;16.27;;;19.30;99.90;;;;;;5013776;28;20406;-64
2023/07/02 04:57:16;;;;;;;20.70;16.10;;;19.30;99.90;;;;;;5042114;28;20210;-64
2023/07/02 04:59:42;;;;;;;19.47;14.70;;;19.20;99.90;;;;;;5047710;28;20209;-64
2023/07/02 05:02:08;;;;;;;17.90;15.20;;;19.20;99.90;;;;;;5032295;28;20523;-64
2023/07/02 05:04:34;;;;;;;24.13;15.10;;;19.20;99.90;;;;;;5032077;28;20413;-61
2023/07/02 05:07:00;;;;;;;20.47;14.73;;;19.10;99.90;;;;;;5034447;28;20845;-64
2023/07/02 05:09:26;;;;;;;22.93;16.20;;;19.10;99.90;;;;;;5052163;28;20728;-64
2023/07/02 05:11:51;;;;;;;21.37;15.53;;;19.20;99.90;;;;;;5049566;28;20466;-64
2023/07/02 05:14:17;;;;;;;17.13;14.03;;;19.20;99.90;;;;;;5037733;28;20174;-64
2023/07/02 05:16:43;;;;;;;21.23;15.23;;;19.20;99.90;;;;;;5031279;28;20672;-65
2023/07/02 05:19:09;;;;;;;20.13;14.90;;;19.20;99.90;;;;;;5034619;28;20181;-61
2023/07/02 05:21:34;;;;;;;20.90;16.67;;;19.20;99.90;;;;;;5035463;28;20674;-60
2023/07/02 05:24:00;;;;;;;21.57;17.97;;;19.10;99.90;;;;;;5043169;28;20208;-61
2023/07/02 05:26:27;;;;;;;18.40;15.30;;;19.20;99.90;;;;;;5039671;28;20182;-61
2023/07/02 05:28:53;;;;;;;22.23;15.77;;;19.30;99.90;;;;;;5040237;28;20433;-61
2023/07/02 05:31:18;;;;;;;21.00;15.93;;;19.30;99.90;;;;;;5032119;28;20483;-61
2023/07/02 05:33:44;;;;;;;20.73;15.07;;;19.40;99.90;;;;;;5049836;28;20416;-61
2023/07/02 05:36:10;;;;;;;23.40;16.10;;;19.50;99.90;;;;;;5051028;28;20236;-61
2023/07/02 05:38:36;;;;;;;19.67;15.17;;;19.50;99.90;;;;;;5050975;28;20178;-60
2023/07/02 05:41:04;;;;;;;21.43;16.67;;;19.60;99.90;;;;;;5047148;28;20181;-61
2023/07/02 05:43:30;;;;;;;22.30;17.20;;;19.60;99.90;;;;;;5039657;28;20433;-63
2023/07/02 05:46:00;;;;;;;24.10;15.67;;;19.60;99.90;;;;;;5030923;28;20459;-63
2023/07/02 05:48:27;;;;;;;26.93;17.33;;;19.70;99.90;;;;;;5039534;28;20249;-63
2023/07/02 05:50:52;;;;;;;23.07;16.37;;;19.80;99.90;;;;;;5038400;28;20464;-63
2023/07/02 05:53:18;;;;;;;24.60;16.77;;;20.00;99.90;;;;;;5038055;28;20421;-63
2023/07/02 05:55:44;;;;;;;28.73;21.97;;;20.10;99.90;;;;;;5041543;28;20181;-63
2023/07/02 05:58:10;;;;;;;26.00;18.07;;;20.30;99.90;;;;;;5034336;28;20173;-63
2023/07/02 06:00:36;;;;;;;26.27;17.93;;;20.40;99.90;;;;;;5035608;28;20201;-63
2023/07/02 06:03:02;;;;;;;23.27;17.80;;;20.60;99.90;;;;;;5054378;28;20443;-63
2023/07/02 06:05:28;;;;;;;24.40;16.43;;;20.70;99.90;;;;;;5037600;28;20404;-63
2023/07/02 06:07:54;;;;;;;20.63;16.50;;;20.70;99.90;;;;;;5054407;28;20540;-63
2023/07/02 06:10:20;;;;;;;19.33;15.90;;;20.80;99.90;;;;;;5042324;28;20209;-62
2023/07/02 06:12:45;;;;;;;21.93;17.13;;;20.80;99.90;;;;;;5040905;28;20182;-62
2023/07/02 06:15:11;;;;;;;18.10;15.60;;;20.90;99.90;;;;;;5045017;28;20173;-63
2023/07/02 06:17:37;;;;;;;21.87;16.47;;;20.90;99.90;;;;;;5049092;28;20189;-64
2023/07/02 06:20:06;;;;;;;23.70;16.40;;;20.90;99.90;;;;;;5036639;28;20451;-63
2023/07/02 06:22:32;;;;;;;21.43;16.83;;;20.90;99.90;;;;;;5043235;28;20333;-62
2023/07/02 06:24:57;;;;;;;21.97;14.97;;;21.00;99.90;;;;;;5041693;28;20528;-63
2023/07/02 06:27:23;;;;;;;20.60;15.40;;;21.10;99.90;;;;;;5052708;28;20689;-63
2023/07/02 06:29:50;;;;;;;21.47;16.63;;;21.10;99.90;;;;;;5042588;28;20174;-62
2023/07/02 06:32:16;;;;;;;18.27;16.13;;;21.20;99.90;;;;;;5038537;28;20308;-63
2023/07/02 06:34:42;;;;;;;17.47;15.27;;;21.20;99.90;;;;;;5034454;28;20929;-62
2023/07/02 06:37:08;;;;;;;22.87;15.67;;;21.20;99.90;;;;;;5034706;28;20174;-63
2023/07/02 06:39:33;;;;;;;22.03;15.07;;;21.30;99.90;;;;;;5047051;28;20225;-63
2023/07/02 06:41:59;;;;;;;19.90;15.73;;;21.30;99.90;;;;;;5017027;28;20206;-62
2023/07/02 06:44:25;;;;;;;21.40;15.80;;;21.30;99.90;;;;;;5046321;28;20173;-63
2023/07/02 06:46:50;;;;;;;20.90;14.70;;;21.40;99.90;;;;;;5037167;28;20181;-62
2023/07/02 06:49:16;;;;;;;21.90;14.37;;;21.50;99.90;;;;;;5035050;28;20166;-63
2023/07/02 06:51:42;;;;;;;21.00;14.83;;;21.60;99.90;;;;;;5034058;28;20198;-62
2023/07/02 06:54:08;;;;;;;17.93;14.00;;;21.60;99.90;;;;;;5035206;28;20593;-63
2023/07/02 06:56:34;;;;;;;22.97;13.10;;;21.60;99.90;;;;;;5037792;28;20170;-63
2023/07/02 06:59:03;;;;;;;18.53;14.30;;;21.60;99.90;;;;;;5041551;28;20768;-62
2023/07/02 07:01:28;;;;;;;20.40;14.10;;;21.60;99.90;;;;;;5033942;28;20170;-63
2023/07/02 07:03:54;;;;;;;38.77;14.03;;;21.70;99.90;;;;;;5033886;28;20736;-63
2023/07/02 07:06:20;;;;;;;26.57;14.83;;;21.70;99.90;;;;;;5036861;28;20676;-63
2023/07/02 07:08:46;;;;;;;18.40;13.03;;;21.80;99.90;;;;;;5043059;28;20185;-62
2023/07/02 07:11:11;;;;;;;18.60;13.93;;;21.90;99.90;;;;;;5033670;28;20237;-63
2023/07/02 07:13:37;;;;;;;19.20;13.47;;;22.00;99.90;;;;;;5043761;28;20170;-62
2023/07/02 07:16:03;;;;;;;17.80;12.90;;;22.00;99.90;;;;;;5026912;28;20188;-62
2023/07/02 07:18:29;;;;;;;18.67;11.97;;;22.20;99.70;;;;;;5044153;28;20170;-63
2023/07/02 07:20:55;;;;;;;18.03;13.30;;;22.20;97.60;;;;;;5050388;28;20900;-63
2023/07/02 07:23:21;;;;;;;19.50;12.03;;;22.30;97.80;;;;;;5050301;28;20205;-63
2023/07/02 07:25:47;;;;;;;15.83;12.60;;;22.30;99.90;;;;;;5044910;28;20461;-63
2023/07/02 07:28:15;;;;;;;16.50;12.10;;;22.40;97.30;;;;;;5053815;28;20210;-63
2023/07/02 07:30:43;;;;;;;14.40;12.10;;;22.40;94.70;;;;;;5043464;28;20707;-62
2023/07/02 07:33:10;;;;;;;14.90;11.07;;;22.30;95.20;;;;;;5034342;28;20498;-63
2023/07/02 07:35:35;;;;;;;20.70;12.20;;;22.40;97.70;;;;;;5037626;28;20467;-63
2023/07/02 07:38:01;;;;;;;115.40;86.50;;;22.10;93.80;;;;;;5042333;28;20440;-63
2023/07/02 07:40:27;;;;;;;20.13;16.20;;;22.10;97.00;;;;;;5042870;28;20229;-62
2023/07/02 07:42:53;;;;;;;17.47;12.07;;;22.10;92.80;;;;;;5042210;28;20552;-63
2023/07/02 07:45:18;;;;;;;17.60;11.90;;;22.10;94.30;;;;;;5043494;28;20547;-63
2023/07/02 07:47:44;;;;;;;14.43;12.30;;;22.20;95.40;;;;;;5045537;28;20197;-62
2023/07/02 07:50:10;;;;;;;16.30;11.87;;;22.30;95.60;;;;;;5053549;28;20223;-62
2023/07/02 07:52:45;;;;;;;19.70;13.50;;;22.30;91.30;;;;;;5030651;28;20602;-66
2023/07/02 07:55:11;;;;;;;17.60;11.40;;;22.30;94.50;;;;;;5032840;28;20188;-62
2023/07/02 07:57:37;;;;;;;151.00;124.47;;;22.40;92.40;;;;;;5035118;28;20987;-63
2023/07/02 08:00:06;;;;;;;122.90;93.23;;;22.30;94.00;;;;;;5032830;28;20788;-62
2023/07/02 08:02:32;;;;;;;29.10;21.90;;;22.50;94.50;;;;;;5047046;28;20424;-62
2023/07/02 08:04:58;;;;;;;19.47;13.30;;;22.60;94.30;;;;;;5042245;28;20901;-62
2023/07/02 08:07:24;;;;;;;17.47;15.00;;;22.60;91.40;;;;;;5047057;28;20302;-62
2023/07/02 08:09:49;;;;;;;14.90;11.67;;;22.50;92.60;;;;;;5032339;28;20177;-62
2023/07/02 08:12:15;;;;;;;17.57;12.30;;;22.60;92.20;;;;;;5033037;28;20209;-64
2023/07/02 08:14:41;;;;;;;15.57;11.47;;;22.60;91.60;;;;;;5035499;28;20184;-64
2023/07/02 08:17:06;;;;;;;18.30;13.47;;;22.60;91.00;;;;;;5052915;28;20532;-62
2023/07/02 08:19:32;;;;;;;24.40;14.83;;;22.60;92.00;;;;;;5052211;28;20231;-62
2023/07/02 08:21:58;;;;;;;18.67;14.20;;;22.50;90.40;;;;;;5018569;28;20192;-62
2023/07/02 08:24:23;;;;;;;18.87;12.60;;;22.40;90.40;;;;;;5042929;28;20177;-63
2023/07/02 08:26:49;;;;;;;17.37;13.43;;;22.30;90.70;;;;;;5036104;28;20197;-62
2023/07/02 08:29:16;;;;;;;20.40;13.50;;;22.30;92.70;;;;;;5034947;28;20170;-62
2023/07/02 08:31:42;;;;;;;18.80;12.40;;;22.30;92.90;;;;;;5048421;28;20197;-63
2023/07/02 08:34:09;;;;;;;18.70;13.67;;;22.30;92.10;;;;;;5044137;28;20436;-62
2023/07/02 08:36:34;;;;;;;17.27;13.47;;;22.20;92.00;;;;;;5032856;28;20462;-63
2023/07/02 08:39:00;;;;;;;20.57;13.63;;;22.30;92.00;;;;;;5041865;28;20463;-63
2023/07/02 08:41:26;;;;;;;15.57;12.50;;;22.30;93.30;;;;;;5033693;28;20630;-62
2023/07/02 08:43:56;;;;;;;19.77;14.80;;;22.40;91.70;;;;;;5032615;28;20170;-63
2023/07/02 08:46:21;;;;;;;19.53;12.70;;;22.40;90.60;;;;;;5032659;28;20189;-63
2023/07/02 08:48:47;;;;;;;16.67;13.27;;;22.40;91.40;;;;;;5032346;28;20417;-62
2023/07/02 08:51:13;;;;;;;44.23;33.60;;;22.40;92.30;;;;;;5032029;28;20209;-63
2023/07/02 08:53:39;;;;;;;257.97;223.83;;;22.40;92.90;;;;;;5032803;28;20805;-63
2023/07/02 08:56:05;;;;;;;21.40;16.50;;;22.40;91.00;;;;;;5040098;28;20182;-62
2023/07/02 08:58:30;;;;;;;23.30;13.30;;;22.30;91.10;;;;;;5047179;28;20226;-62
2023/07/02 09:01:11;;;;;;;20.10;16.30;;;22.30;92.10;;;;;;5043869;28;20560;-62
2023/07/02 09:03:38;;;;;;;21.50;15.97;;;22.20;91.60;;;;;;5022932;28;20201;-62
2023/07/02 09:06:05;;;;;;;15.60;12.33;;;22.30;92.60;;;;;;5039522;28;20433;-63
2023/07/02 09:08:33;;;;;;;17.47;13.13;;;22.30;90.20;;;;;;5042312;28;20437;-62
2023/07/02 09:11:13;;;;;;;16.63;12.67;;;22.20;90.10;;;;;;5040586;28;20480;-62
2023/07/02 09:14:05;;;;;;;15.87;13.30;;;22.30;89.20;;;;;;5048737;28;20485;-63
2023/07/02 09:16:33;;;;;;;41.67;29.93;;;22.40;89.10;;;;;;5028498;28;20421;-63
2023/07/02 09:19:08;;;;;;;66.03;46.60;;;22.60;90.30;;;;;;5031528;28;20421;-63
2023/07/02 09:21:47;;;;;;;16.80;13.00;;;22.80;90.30;;;;;;5033667;28;20408;-63
2023/07/02 09:24:18;;;;;;;16.30;11.60;;;22.90;85.50;;;;;;5034070;28;20449;-62
2023/07/02 09:26:50;;;;;;;13.30;11.30;;;23.00;85.20;;;;;;5052283;28;20404;-63
2023/07/02 09:29:24;;;;;;;15.50;12.50;;;23.00;83.30;;;;;;5046044;28;20859;-63
2023/07/02 09:31:52;;;;;;;14.20;12.00;;;23.00;86.60;;;;;;5036693;28;20518;-62
2023/07/02 09:34:18;;;;;;;16.37;12.43;;;22.90;83.90;;;;;;5035917;28;20420;-63
2023/07/02 09:36:44;;;;;;;26.20;21.50;;;22.90;81.40;;;;;;5038568;28;20429;-62
2023/07/02 09:39:18;;;;;;;61.40;45.90;;;22.80;83.90;;;;;;5042169;28;20294;-65
2023/07/02 09:41:45;;;;;;;17.63;14.67;;;22.70;81.60;;;;;;5043088;28;20413;-62
2023/07/02 09:44:12;;;;;;;16.37;12.17;;;22.70;83.70;;;;;;5037786;28;20419;-62
2023/07/02 09:46:45;;;;;;;12.53;9.87;;;22.70;82.40;;;;;;5035935;28;20413;-65
2023/07/02 09:49:16;;;;;;;14.27;11.30;;;22.60;82.30;;;;;;5046817;28;20399;-61
2023/07/02 09:51:43;;;;;;;15.53;10.40;;;22.40;82.20;;;;;;5046055;28;20530;-64
2023/07/02 09:54:10;;;;;;;14.60;11.43;;;22.40;83.30;;;;;;5049919;28;20420;-64
2023/07/02 09:56:36;;;;;;;14.47;11.27;;;22.40;85.70;;;;;;5035747;28;20419;-66
2023/07/02 09:59:01;;;;;;;12.67;9.93;;;22.60;87.20;;;;;;5035335;28;20429;-65
2023/07/02 10:01:27;;;;;;;16.23;12.30;;;22.70;88.10;;;;;;5042272;28;20170;-66
2023/07/02 10:03:53;;;;;;;16.57;11.30;;;22.70;84.60;;;;;;5036135;28;20174;-65
2023/07/02 10:06:19;;;;;;;20.07;12.87;;;22.70;88.90;;;;;;5035413;28;20416;-63
2023/07/02 10:08:55;;;;;;;21.73;11.73;;;22.90;91.20;;;;;;5045088;28;20166;-64
2023/07/02 10:11:32;;;;;;;15.83;11.57;;;23.10;91.60;;;;;;5048284;28;20229;-63
2023/07/02 10:13:59;;;;;;;13.10;10.50;;;23.20;86.70;;;;;;5039907;28;20462;-62
2023/07/02 10:16:27;;;;;;;13.60;10.93;;;23.40;87.30;;;;;;5038032;28;20909;-63
2023/07/02 10:18:53;;;;;;;12.10;10.67;;;23.50;89.20;;;;;;5040627;28;20409;-62
2023/07/02 10:21:19;;;;;;;13.87;11.80;;;23.50;87.00;;;;;;5048234;28;20431;-63
2023/07/02 10:23:46;;;;;;;15.43;12.87;;;23.50;88.60;;;;;;5040737;28;20416;-63
2023/07/02 10:26:18;;;;;;;13.70;10.87;;;23.60;86.50;;;;;;5034349;28;20488;-63
2023/07/02 10:28:59;;;;;;;12.37;9.60;;;23.60;85.10;;;;;;5041214;28;20441;-63
2023/07/02 10:31:26;;;;;;;13.17;10.60;;;23.50;81.80;;;;;;5042040;28;20916;-63
2023/07/02 10:33:52;;;;;;;14.40;11.47;;;23.40;88.00;;;;;;5033977;28;20759;-62
2023/07/02 10:36:23;;;;;;;15.30;11.57;;;23.30;87.40;;;;;;5037161;28;20419;-65
2023/07/02 10:38:49;;;;;;;12.73;10.70;;;23.30;89.00;;;;;;5048927;28;20662;-63
2023/07/02 10:41:30;;;;;;;16.10;11.47;;;23.20;83.80;;;;;;5049019;28;20468;-63
2023/07/02 10:44:09;;;;;;;15.47;11.40;;;23.00;86.00;;;;;;5037694;28;20917;-62
2023/07/02 10:46:43;;;;;;;16.03;11.33;;;23.00;87.40;;;;;;5034931;28;20418;-63
2023/07/02 10:49:09;;;;;;;16.10;11.80;;;23.10;86.00;;;;;;5036540;28;20745;-63
2023/07/02 10:51:34;;;;;;;14.17;11.23;;;23.10;89.20;;;;;;5051430;28;20448;-63
2023/07/02 10:54:02;;;;;;;19.83;12.83;;;22.90;84.10;;;;;;5052025;28;20429;-63
2023/07/02 10:56:28;;;;;;;17.57;12.67;;;22.90;86.70;;;;;;5035738;28;20170;-63
2023/07/02 10:58:54;;;;;;;15.70;11.97;;;22.80;83.50;;;;;;5046653;28;20448;-62
2023/07/02 11:01:28;;;;;;;15.97;11.80;;;22.70;87.20;;;;;;5035710;28;20417;-63
2023/07/02 11:04:03;;;;;;;15.27;11.60;;;22.60;89.20;;;;;;5038742;28;20421;-62
2023/07/02 11:06:32;;;;;;;11.90;10.60;;;22.50;87.40;;;;;;5046539;28;20511;-62
2023/07/02 11:09:00;;;;;;;15.53;11.60;;;22.30;85.60;;;;;;5034058;28;20412;-63
2023/07/02 11:11:26;;;;;;;16.83;11.73;;;22.20;85.30;;;;;;5022573;28;20466;-61
2023/07/02 11:13:52;;;;;;;13.40;10.67;;;22.10;90.00;;;;;;5050845;28;20503;-63
2023/07/02 11:16:25;;;;;;;10.90;9.47;;;22.10;87.10;;;;;;5048409;28;20758;-62
2023/07/02 11:18:52;;;;;;;13.40;10.90;;;22.20;87.50;;;;;;5035987;28;20452;-62
2023/07/02 11:21:18;;;;;;;14.73;12.13;;;22.30;87.20;;;;;;5033992;28;20436;-62
2023/07/02 11:23:44;;;;;;;14.30;12.10;;;22.40;85.50;;;;;;5033966;28;20854;-62
2023/07/02 11:26:09;;;;;;;15.13;10.90;;;22.40;82.80;;;;;;5015853;28;20237;-62
2023/07/02 11:28:35;;;;;;;14.43;10.10;;;22.30;83.10;;;;;;5035446;28;20249;-60
2023/07/02 11:31:07;;;;;;;13.90;10.70;;;22.20;82.60;;;;;;5041622;28;20553;-60
2023/07/02 11:33:36;;;;;;;14.70;10.17;;;22.20;82.40;;;;;;5043154;28;20416;-60
2023/07/02 11:36:03;;;;;;;13.10;10.70;;;22.00;82.20;;;;;;5053099;28;20405;-60
2023/07/02 11:38:29;;;;;;;12.13;9.97;;;21.80;83.90;;;;;;5035894;28;20408;-60
2023/07/02 11:40:55;;;;;;;11.80;10.60;;;21.70;84.20;;;;;;5049567;28;20441;-60
2023/07/02 11:43:20;;;;;;;11.27;9.40;;;21.80;84.90;;;;;;5033865;28;20203;-60
2023/07/02 11:45:46;;;;;;;12.17;10.03;;;22.00;88.30;;;;;;5034028;28;20304;-60
2023/07/02 11:48:12;;;;;;;13.73;10.17;;;22.20;83.80;;;;;;5033154;28;20174;-60
2023/07/02 11:50:38;;;;;;;12.63;11.30;;;22.30;82.00;;;;;;5051722;28;20634;-60
2023/07/02 11:53:04;;;;;;;13.90;11.40;;;22.50;80.10;;;;;;5052674;28;20423;-60
2023/07/02 11:55:30;;;;;;;14.47;10.87;;;22.70;78.80;;;;;;5051088;28;20168;-60
2023/07/02 11:57:56;;;;;;;14.30;10.17;;;22.60;75.90;;;;;;5032951;28;20166;-60
2023/07/02 12:00:22;;;;;;;11.00;9.00;;;22.60;76.90;;;;;;5024089;28;20444;-60
2023/07/02 12:02:48;;;;;;;12.67;9.33;;;22.70;77.00;;;;;;5028262;28;20182;-60
2023/07/02 12:05:14;;;;;;;10.57;9.30;;;22.80;77.20;;;;;;5032820;28;20170;-60
2023/07/02 12:07:39;;;;;;;11.10;9.50;;;22.80;76.00;;;;;;5033304;28;20420;-60
2023/07/02 12:10:08;;;;;;;15.53;9.53;;;23.00;78.20;;;;;;5043931;28;20186;-60
2023/07/02 12:12:34;;;;;;;8.60;7.80;;;23.10;80.00;;;;;;5035145;28;20413;-60
2023/07/02 12:15:00;;;;;;;9.83;8.83;;;23.40;80.20;;;;;;5032547;28;20519;-60
2023/07/02 12:17:25;;;;;;;11.47;8.43;;;23.60;76.40;;;;;;5035413;28;20182;-60
2023/07/02 12:19:51;;;;;;;11.90;10.07;;;23.60;76.20;;;;;;5051183;28;20538;-60
2023/07/02 12:22:18;;;;;;;11.17;9.57;;;23.60;75.10;;;;;;5052121;28;20196;-60
2023/07/02 12:24:46;;;;;;;10.57;8.80;;;23.80;77.80;;;;;;5051071;28;20188;-60
2023/07/02 12:27:12;;;;;;;13.10;9.27;;;23.90;75.30;;;;;;5051810;28;20432;-61
2023/07/02 12:29:38;;;;;;;11.30;8.70;;;23.90;74.40;;;;;;5052157;28;20419;-60
2023/07/02 12:32:04;;;;;;;11.77;9.00;;;23.90;74.40;;;;;;5051705;28;20256;-60